Time;durP1;ratioP1;P1;durP2;ratioP2;P2;SDS_P1;SDS_P2;PMS_P1;PMS_P2;Temp;Humidity;BMP_temperature;BMP_pressure;BME280_temperature;BME280_humidity;BME280_pressure;Samples;Min_cycle;Max_cycle;Signal;HPM_P1;HPM_P2
2021/03/03 00:00:58;;;;;;;23.08;8.93;;;4.20;99.90;;;;;;5074027;28;20402;-75
2021/03/03 00:03:24;;;;;;;21.65;8.65;;;4.30;99.90;;;;;;5073826;28;20024;-74
2021/03/03 00:05:49;;;;;;;21.38;9.27;;;4.20;99.90;;;;;;5073886;28;20028;-74
2021/03/03 00:08:23;;;;;;;23.67;9.18;;;4.20;99.90;;;;;;5073233;28;20043;-75
2021/03/03 00:10:49;;;;;;;21.65;7.75;;;4.20;99.90;;;;;;5060044;28;20037;-75
2021/03/03 00:13:14;;;;;;;21.23;9.20;;;4.20;99.90;;;;;;5053864;28;20433;-74
2021/03/03 00:15:42;;;;;;;27.75;9.40;;;4.10;99.90;;;;;;5054047;28;20027;-75
2021/03/03 00:18:08;;;;;;;25.75;10.35;;;4.10;99.90;;;;;;5053629;28;20055;-76
2021/03/03 00:20:33;;;;;;;28.92;9.88;;;4.10;99.90;;;;;;5063850;28;20060;-76
2021/03/03 00:22:59;;;;;;;29.15;10.18;;;4.10;99.90;;;;;;5072345;28;20035;-76
2021/03/03 00:25:25;;;;;;;25.75;9.80;;;4.00;99.90;;;;;;5071676;28;20127;-76
2021/03/03 00:27:50;;;;;;;28.67;10.25;;;4.60;99.90;;;;;;5072356;28;20024;-76
2021/03/03 00:30:16;;;;;;;27.80;10.43;;;3.90;99.90;;;;;;5063829;28;20033;-76
2021/03/03 00:32:43;;;;;;;33.08;12.02;;;3.90;99.90;;;;;;5052810;28;20028;-76
2021/03/03 00:35:09;;;;;;;28.98;10.43;;;3.90;99.90;;;;;;5052997;28;20502;-76
2021/03/03 00:37:35;;;;;;;30.10;12.15;;;3.90;99.90;;;;;;5055894;28;20479;-75
2021/03/03 00:40:00;;;;;;;26.75;10.40;;;3.90;99.90;;;;;;5057968;28;20025;-75
2021/03/03 00:42:26;;;;;;;30.90;10.00;;;3.80;99.90;;;;;;5057532;28;20032;-75
2021/03/03 00:44:51;;;;;;;31.75;12.32;;;3.80;99.90;;;;;;5056396;28;20147;-75
2021/03/03 00:47:17;;;;;;;35.40;12.13;;;3.80;99.90;;;;;;5057380;28;20032;-74
2021/03/03 00:49:42;;;;;;;25.63;10.82;;;3.80;99.90;;;;;;5073278;28;20066;-74
2021/03/03 00:52:08;;;;;;;26.63;10.40;;;3.80;99.90;;;;;;5076285;28;20474;-77
2021/03/03 00:54:33;;;;;;;27.83;10.10;;;3.70;99.90;;;;;;5076969;28;20130;-74
2021/03/03 00:56:59;;;;;;;24.45;8.88;;;3.80;99.90;;;;;;5077559;28;20032;-76
2021/03/03 00:59:24;;;;;;;23.70;9.50;;;3.80;99.90;;;;;;5076665;28;20528;-75
2021/03/03 01:01:50;;;;;;;24.85;8.60;;;3.80;99.90;;;;;;5076701;28;20036;-78
2021/03/03 01:04:16;;;;;;;19.80;8.10;;;3.80;99.90;;;;;;5075637;28;20028;-75
2021/03/03 01:06:41;;;;;;;23.35;8.23;;;3.80;99.90;;;;;;5076580;28;20089;-76
2021/03/03 01:09:07;;;;;;;20.52;8.07;;;3.80;99.90;;;;;;5065198;28;20033;-76
2021/03/03 01:11:32;;;;;;;24.98;9.57;;;3.80;99.90;;;;;;5056758;28;20048;-76
2021/03/03 01:13:58;;;;;;;21.45;8.82;;;3.70;99.90;;;;;;5056501;28;20027;-77
2021/03/03 01:16:23;;;;;;;19.73;8.18;;;3.70;99.90;;;;;;5056504;28;20127;-77
2021/03/03 01:18:49;;;;;;;20.77;8.23;;;3.70;99.90;;;;;;5064294;28;20030;-76
2021/03/03 01:21:15;;;;;;;22.67;8.18;;;3.70;99.90;;;;;;5076655;28;20046;-76
2021/03/03 01:23:40;;;;;;;27.45;8.55;;;3.70;99.90;;;;;;5076525;28;20027;-76
2021/03/03 01:26:06;;;;;;;25.38;8.40;;;3.70;99.90;;;;;;5075836;28;20025;-76
2021/03/03 01:28:31;;;;;;;25.02;8.73;;;3.60;99.90;;;;;;5075704;28;20082;-77
2021/03/03 01:30:57;;;;;;;21.95;8.38;;;3.50;99.90;;;;;;5075220;28;20031;-77
2021/03/03 01:33:30;;;;;;;22.55;8.38;;;3.50;99.90;;;;;;5074718;28;20024;-76
2021/03/03 01:35:55;;;;;;;27.40;9.07;;;3.50;99.90;;;;;;5064715;28;20108;-76
2021/03/03 01:38:21;;;;;;;27.25;8.63;;;3.50;99.90;;;;;;5056133;28;20049;-75
2021/03/03 01:40:48;;;;;;;19.63;8.15;;;3.50;99.90;;;;;;5056279;28;20032;-75
2021/03/03 01:43:14;;;;;;;22.25;7.35;;;3.40;99.90;;;;;;5055251;28;20025;-77
2021/03/03 01:45:39;;;;;;;26.75;9.43;;;3.50;99.90;;;;;;5055261;28;20032;-76
2021/03/03 01:48:06;;;;;;;23.05;8.80;;;3.50;99.90;;;;;;5054910;28;20017;-75
2021/03/03 01:50:32;;;;;;;24.73;8.35;;;3.50;99.90;;;;;;5054579;28;20521;-76
2021/03/03 01:52:59;;;;;;;23.55;7.68;;;3.50;99.90;;;;;;5054637;28;20056;-75
2021/03/03 01:55:24;;;;;;;28.20;7.78;;;3.50;99.90;;;;;;5054561;22;20049;-75
2021/03/03 01:57:51;;;;;;;20.90;7.93;;;3.50;99.90;;;;;;5078958;22;20048;-75
2021/03/03 02:00:17;;;;;;;23.33;9.95;;;3.50;99.90;;;;;;5057473;28;20028;-76
2021/03/03 02:02:42;;;;;;;24.65;8.85;;;3.40;99.90;;;;;;5075803;28;20101;-75
2021/03/03 02:05:09;;;;;;;34.85;7.97;;;3.40;99.90;;;;;;5053603;28;20486;-77
2021/03/03 02:07:59;;;;;;;19.55;7.85;;;3.40;99.90;;;;;;5055561;28;20052;-77
2021/03/03 02:10:50;;;;;;;22.45;8.20;;;3.40;99.90;;;;;;5055718;28;20018;-75
2021/03/03 02:13:30;;;;;;;20.13;7.65;;;3.40;99.90;;;;;;5037495;28;20013;-75
2021/03/03 02:15:58;;;;;;;22.98;8.18;;;3.40;99.90;;;;;;5047533;28;20425;-76
2021/03/03 02:18:25;;;;;;;27.33;9.13;;;3.40;99.90;;;;;;5057247;28;20020;-78
2021/03/03 02:21:09;;;;;;;20.48;8.25;;;3.30;99.90;;;;;;5057238;28;20036;-75
2021/03/03 02:23:42;;;;;;;22.50;8.32;;;3.30;99.90;;;;;;5075431;28;20044;-75
2021/03/03 02:26:08;;;;;;;22.45;7.43;;;3.30;99.90;;;;;;5063944;28;20029;-75
2021/03/03 02:28:35;;;;;;;19.55;7.22;;;3.20;99.90;;;;;;5054981;28;20376;-76
2021/03/03 02:31:01;;;;;;;23.98;8.45;;;3.20;99.90;;;;;;5055324;28;20032;-75
2021/03/03 02:33:27;;;;;;;24.10;8.25;;;3.10;99.90;;;;;;5037155;28;20483;-77
2021/03/03 02:35:53;;;;;;;22.95;8.18;;;3.00;99.90;;;;;;5055460;28;20075;-76
2021/03/03 02:38:20;;;;;;;28.55;9.05;;;3.00;99.90;;;;;;5066903;28;20036;-75
2021/03/03 02:40:46;;;;;;;27.23;9.75;;;3.00;99.90;;;;;;5074911;28;20055;-75
2021/03/03 02:43:17;;;;;;;26.30;8.77;;;3.00;99.90;;;;;;5100308;22;20036;-75
2021/03/03 02:45:45;;;;;;;28.98;9.32;;;3.00;99.90;;;;;;5084998;28;20038;-75
2021/03/03 02:48:11;;;;;;;30.40;10.15;;;2.90;99.90;;;;;;5097030;28;20123;-75
2021/03/03 02:50:37;;;;;;;21.50;7.88;;;3.00;99.90;;;;;;5115243;28;20047;-77
2021/03/03 02:53:02;;;;;;;28.85;9.40;;;3.00;99.90;;;;;;5115558;28;20050;-76
2021/03/03 02:55:29;;;;;;;23.10;9.98;;;3.00;99.90;;;;;;5109857;28;20035;-77
2021/03/03 02:57:56;;;;;;;21.88;7.88;;;3.10;99.90;;;;;;5076633;28;20081;-76
2021/03/03 03:00:29;;;;;;;22.30;8.95;;;3.00;99.90;;;;;;5094470;28;20135;-75
2021/03/03 03:03:22;;;;;;;23.02;8.52;;;3.00;99.90;;;;;;5096563;22;20074;-75
2021/03/03 03:06:03;;;;;;;28.33;8.45;;;3.00;99.90;;;;;;5064023;28;20020;-76
2021/03/03 03:08:30;;;;;;;25.30;8.52;;;3.00;99.90;;;;;;5094699;28;20050;-75
2021/03/03 03:11:00;;;;;;;20.65;7.95;;;2.90;99.90;;;;;;5076322;28;20028;-76
2021/03/03 03:13:28;;;;;;;24.33;8.43;;;2.90;99.90;;;;;;5094630;28;20020;-75
2021/03/03 03:15:55;;;;;;;23.67;8.97;;;2.90;99.90;;;;;;5075628;28;20073;-77
2021/03/03 03:18:34;;;;;;;24.77;9.50;;;2.90;99.90;;;;;;5076346;28;20470;-75
2021/03/03 03:21:01;;;;;;;28.20;9.48;;;2.90;99.90;;;;;;5076385;28;20016;-75
2021/03/03 03:23:28;;;;;;;22.40;8.50;;;2.90;99.90;;;;;;5076500;28;20157;-75
2021/03/03 03:25:55;;;;;;;26.35;9.38;;;2.80;99.90;;;;;;5076158;28;20417;-75
2021/03/03 03:28:24;;;;;;;22.77;9.13;;;2.80;99.90;;;;;;5094194;28;20103;-75
2021/03/03 03:30:53;;;;;;;;;;;2.70;99.90;;;;;;5094432;28;20551;-76
2021/03/03 03:33:19;;;;;;;24.10;8.30;;;2.70;99.90;;;;;;5093865;28;20003;-77
2021/03/03 03:35:46;;;;;;;24.98;9.18;;;2.70;99.90;;;;;;5036129;28;20040;-76
2021/03/03 03:38:11;;;;;;;28.75;9.38;;;2.70;99.90;;;;;;5053397;28;20032;-76
2021/03/03 03:40:37;;;;;;;26.33;9.77;;;2.70;99.90;;;;;;5055905;28;20027;-78
2021/03/03 03:43:07;;;;;;;23.13;7.82;;;2.60;99.90;;;;;;5055906;28;20036;-79
2021/03/03 03:45:34;;;;;;;25.77;8.35;;;2.70;99.90;;;;;;5079386;28;20107;-75
2021/03/03 03:48:01;;;;;;;27.33;8.75;;;2.60;99.90;;;;;;5055788;28;20078;-78
2021/03/03 03:50:27;;;;;;;23.52;8.07;;;2.60;99.90;;;;;;5073838;28;20025;-76
2021/03/03 03:52:54;;;;;;;27.60;9.90;;;2.60;99.90;;;;;;5073759;28;20043;-77
2021/03/03 03:55:20;;;;;;;24.52;9.00;;;2.60;99.90;;;;;;5073658;28;20539;-75
2021/03/03 03:57:47;;;;;;;29.30;8.85;;;2.60;99.90;;;;;;5084607;28;20402;-76
2021/03/03 04:00:15;;;;;;;25.13;8.60;;;2.50;99.90;;;;;;5055513;28;20505;-77
2021/03/03 04:02:40;;;;;;;23.08;9.27;;;2.50;99.90;;;;;;5073222;28;20044;-75
2021/03/03 04:05:06;;;;;;;23.92;9.70;;;2.50;99.90;;;;;;5091309;22;20055;-75
2021/03/03 04:07:32;;;;;;;23.52;8.70;;;2.50;99.90;;;;;;5093721;28;20393;-76
2021/03/03 04:09:57;;;;;;;23.92;7.43;;;2.50;99.90;;;;;;5093670;28;20031;-75
2021/03/03 04:12:23;;;;;;;26.48;8.80;;;2.50;99.90;;;;;;5097558;28;20024;-75
2021/03/03 04:14:48;;;;;;;21.98;7.65;;;2.50;99.90;;;;;;5097777;28;20058;-75
2021/03/03 04:17:14;;;;;;;26.00;9.35;;;2.50;99.90;;;;;;5097958;28;20099;-77
2021/03/03 04:19:42;;;;;;;29.88;9.27;;;2.50;99.90;;;;;;5097745;28;20032;-76
2021/03/03 04:22:07;;;;;;;21.67;8.85;;;2.50;99.90;;;;;;5097835;28;20108;-76
2021/03/03 04:24:33;;;;;;;29.23;8.95;;;2.50;99.90;;;;;;5097548;28;20529;-75
2021/03/03 04:26:58;;;;;;;24.08;8.93;;;2.60;99.90;;;;;;5097517;28;20059;-77
2021/03/03 04:29:24;;;;;;;28.58;8.75;;;2.60;99.90;;;;;;5080044;28;20547;-77
2021/03/03 04:31:49;;;;;;;22.55;8.13;;;2.60;99.90;;;;;;5097952;28;20024;-76
2021/03/03 04:34:15;;;;;;;22.00;8.98;;;2.60;99.90;;;;;;5098275;28;20013;-76
2021/03/03 04:36:40;;;;;;;26.10;7.97;;;2.60;99.90;;;;;;5097195;28;20048;-76
2021/03/03 04:39:06;;;;;;;21.95;8.55;;;2.60;99.90;;;;;;5079278;28;20035;-75
2021/03/03 04:41:31;;;;;;;25.23;9.23;;;2.60;99.90;;;;;;5079256;28;20481;-78
2021/03/03 04:43:57;;;;;;;18.63;7.38;;;2.60;99.90;;;;;;5097504;28;20085;-75
2021/03/03 04:46:22;;;;;;;23.58;8.05;;;2.50;99.90;;;;;;5097165;28;20043;-78
2021/03/03 04:48:48;;;;;;;24.80;8.68;;;2.50;99.90;;;;;;5096531;28;20092;-78
2021/03/03 04:51:13;;;;;;;22.13;8.68;;;2.50;99.90;;;;;;5097365;28;20106;-76
2021/03/03 04:53:39;;;;;;;21.20;8.50;;;2.50;99.90;;;;;;5095062;28;20020;-75
2021/03/03 04:56:05;;;;;;;22.70;8.40;;;2.50;99.90;;;;;;5078809;28;20024;-76
2021/03/03 04:58:30;;;;;;;26.02;8.95;;;2.50;99.90;;;;;;5097009;28;20433;-75
2021/03/03 05:00:56;;;;;;;28.17;9.43;;;2.50;99.90;;;;;;5113130;22;20432;-77
2021/03/03 05:03:24;;;;;;;24.85;9.18;;;2.50;99.90;;;;;;5078263;28;20028;-75
2021/03/03 05:05:50;;;;;;;27.90;8.88;;;2.50;99.90;;;;;;5096892;28;20020;-75
2021/03/03 05:08:16;;;;;;;27.17;8.88;;;2.60;99.90;;;;;;5096718;28;20085;-75
2021/03/03 05:10:42;;;;;;;28.65;9.43;;;2.60;99.90;;;;;;5096409;28;20020;-77
2021/03/03 05:13:16;;;;;;;19.25;7.68;;;2.60;99.90;;;;;;5091439;22;20106;-75
2021/03/03 05:15:42;;;;;;;20.92;7.88;;;2.60;99.90;;;;;;5076570;28;20024;-76
2021/03/03 05:18:09;;;;;;;24.15;8.27;;;2.60;99.90;;;;;;5076139;28;20108;-76
2021/03/03 05:20:36;;;;;;;22.27;8.38;;;2.60;99.90;;;;;;5075289;28;20535;-75
2021/03/03 05:23:02;;;;;;;24.73;8.93;;;2.60;99.90;;;;;;5076166;28;20032;-75
2021/03/03 05:25:27;;;;;;;25.10;8.40;;;2.60;99.90;;;;;;5076580;28;20020;-75
2021/03/03 05:27:53;;;;;;;23.90;9.38;;;2.70;99.90;;;;;;5076669;28;20024;-75
2021/03/03 05:30:20;;;;;;;22.95;9.00;;;2.70;99.90;;;;;;5093629;22;20048;-75
2021/03/03 05:32:45;;;;;;;22.73;8.07;;;2.70;99.90;;;;;;5098400;28;20039;-75
2021/03/03 05:35:11;;;;;;;28.77;8.88;;;2.70;99.90;;;;;;5098609;28;20023;-77
2021/03/03 05:37:37;;;;;;;19.20;8.82;;;2.70;99.90;;;;;;5117068;28;20055;-75
2021/03/03 05:40:03;;;;;;;25.35;9.05;;;2.70;99.90;;;;;;5116672;28;20172;-75
2021/03/03 05:42:29;;;;;;;20.42;8.40;;;2.70;99.90;;;;;;5117386;28;20034;-75
2021/03/03 05:44:55;;;;;;;26.60;10.57;;;2.70;99.90;;;;;;5115368;28;20026;-76
2021/03/03 05:47:22;;;;;;;26.08;8.55;;;2.80;99.90;;;;;;5093686;22;20487;-75
2021/03/03 05:49:51;;;;;;;25.52;9.32;;;2.70;99.90;;;;;;5056112;28;20593;-77
2021/03/03 05:52:18;;;;;;;24.52;11.13;;;2.70;99.90;;;;;;5055053;28;20021;-75
2021/03/03 05:54:45;;;;;;;27.35;10.43;;;2.70;99.90;;;;;;5073557;22;20100;-75
2021/03/03 05:57:12;;;;;;;27.02;10.35;;;2.80;99.90;;;;;;5075379;28;20422;-75
2021/03/03 05:59:39;;;;;;;23.00;10.15;;;2.70;99.90;;;;;;5075362;28;20025;-76
2021/03/03 06:02:05;;;;;;;23.70;9.20;;;2.70;99.90;;;;;;5076022;28;20029;-76
2021/03/03 06:04:31;;;;;;;23.55;10.52;;;2.70;99.90;;;;;;5075817;28;20482;-76
2021/03/03 06:06:58;;;;;;;24.80;10.05;;;2.70;99.90;;;;;;5075481;28;20024;-77
2021/03/03 06:09:24;;;;;;;24.05;9.55;;;2.70;99.90;;;;;;5075613;28;20021;-77
2021/03/03 06:11:51;;;;;;;24.45;9.27;;;2.70;99.90;;;;;;5057480;28;20368;-77
2021/03/03 06:14:17;;;;;;;22.50;8.80;;;2.60;99.90;;;;;;5075553;28;20028;-75
2021/03/03 06:16:44;;;;;;;23.38;9.50;;;2.60;99.90;;;;;;5061996;28;20025;-75
2021/03/03 06:19:10;;;;;;;28.20;10.32;;;2.70;99.90;;;;;;5055707;28;20020;-76
2021/03/03 06:21:35;;;;;;;26.52;9.65;;;2.70;99.90;;;;;;5037667;28;20070;-76
2021/03/03 06:24:04;;;;;;;26.50;9.73;;;2.70;99.90;;;;;;5055226;28;20032;-76
2021/03/03 06:26:30;;;;;;;24.85;11.13;;;2.70;99.90;;;;;;5066810;28;20047;-75
2021/03/03 06:28:56;;;;;;;26.83;9.90;;;2.80;99.90;;;;;;5075494;28;20028;-74
2021/03/03 06:31:34;;;;;;;31.83;9.65;;;2.90;99.90;;;;;;5057499;28;20044;-75
2021/03/03 06:34:15;;;;;;;25.40;10.50;;;2.80;99.90;;;;;;5074871;28;20024;-75
2021/03/03 06:36:46;;;;;;;34.60;10.90;;;2.90;99.90;;;;;;5044297;28;20435;-75
2021/03/03 06:39:27;;;;;;;26.05;9.07;;;2.90;99.90;;;;;;5055131;28;20114;-76
2021/03/03 06:41:55;;;;;;;27.95;9.77;;;2.90;99.90;;;;;;5054918;28;20511;-75
2021/03/03 06:44:22;;;;;;;28.25;10.32;;;2.90;99.90;;;;;;5037450;28;20025;-75
2021/03/03 06:47:05;;;;;;;30.33;10.05;;;3.00;99.90;;;;;;5068996;28;20024;-73
2021/03/03 06:49:31;;;;;;;29.30;10.50;;;3.00;99.90;;;;;;5074747;28;20398;-76
2021/03/03 06:51:57;;;;;;;26.17;9.57;;;3.10;99.90;;;;;;5056959;28;20031;-75
2021/03/03 06:54:23;;;;;;;23.13;9.55;;;3.10;99.90;;;;;;5056333;28;20013;-75
2021/03/03 06:56:57;;;;;;;26.02;10.27;;;3.20;99.90;;;;;;5056964;28;20036;-76
2021/03/03 06:59:30;;;;;;;29.88;10.45;;;3.20;99.90;;;;;;5121939;22;20052;-75
2021/03/03 07:02:01;;;;;;;26.08;9.75;;;3.20;99.90;;;;;;5115462;28;20027;-76
2021/03/03 07:04:29;;;;;;;24.15;9.88;;;3.30;99.90;;;;;;5097150;28;20027;-75
2021/03/03 07:07:00;;;;;;;26.48;8.82;;;3.30;99.90;;;;;;5097054;28;20063;-77
2021/03/03 07:09:36;;;;;;;24.70;9.27;;;3.40;99.90;;;;;;5097251;28;20397;-76
2021/03/03 07:12:06;;;;;;;28.52;9.95;;;3.50;99.90;;;;;;5115423;28;20046;-76
2021/03/03 07:14:32;;;;;;;29.23;11.00;;;3.60;99.90;;;;;;5115815;28;20500;-77
2021/03/03 07:22:05;;;;;;;28.45;10.68;;;3.90;99.90;;;;;;5107621;22;20070;-76
2021/03/03 07:24:31;;;;;;;28.90;10.68;;;3.90;99.90;;;;;;5048592;22;20057;-75
2021/03/03 07:26:57;;;;;;;24.55;9.65;;;4.10;99.90;;;;;;5034601;28;20025;-76
2021/03/03 07:29:23;;;;;;;25.45;10.93;;;4.20;99.90;;;;;;5035016;28;20026;-76
2021/03/03 07:31:50;;;;;;;26.17;9.63;;;4.20;99.90;;;;;;5045592;28;20430;-77
2021/03/03 07:34:16;;;;;;;29.77;11.40;;;4.30;99.90;;;;;;5051838;22;20071;-76
2021/03/03 07:36:49;;;;;;;26.38;11.43;;;4.40;99.90;;;;;;5094206;28;20107;-76
2021/03/03 07:39:18;;;;;;;29.75;11.70;;;4.40;99.90;;;;;;5108930;22;20508;-77
2021/03/03 07:41:45;;;;;;;27.27;9.85;;;4.50;99.90;;;;;;5095385;28;20028;-76
2021/03/03 07:44:22;;;;;;;32.17;10.85;;;4.60;99.90;;;;;;5094515;28;20372;-76
2021/03/03 07:46:49;;;;;;;28.65;11.43;;;4.60;99.90;;;;;;5108709;22;20012;-76
2021/03/03 07:49:21;;;;;;;36.00;12.90;;;4.80;99.90;;;;;;5111598;22;20068;-77
2021/03/03 07:51:47;;;;;;;35.45;11.80;;;4.80;99.90;;;;;;5072660;28;20544;-73
2021/03/03 07:54:14;;;;;;;28.45;10.82;;;4.90;99.90;;;;;;5065208;28;20096;-76
2021/03/03 07:56:40;;;;;;;32.50;13.23;;;5.00;99.90;;;;;;5072555;28;20024;-75
2021/03/03 07:59:07;;;;;;;26.48;12.43;;;5.10;99.90;;;;;;5067036;28;20031;-76
2021/03/03 08:01:37;;;;;;;30.20;13.02;;;5.20;99.90;;;;;;5073411;28;20028;-74
2021/03/03 08:04:03;;;;;;;33.80;13.68;;;5.20;99.90;;;;;;5064722;28;20078;-76
2021/03/03 08:06:34;;;;;;;29.20;12.48;;;5.30;99.90;;;;;;5073503;28;20024;-75
2021/03/03 08:09:05;;;;;;;37.63;13.30;;;5.40;99.90;;;;;;5073817;28;20029;-75
2021/03/03 08:11:31;;;;;;;34.38;13.50;;;5.50;99.90;;;;;;5072642;28;20078;-75
2021/03/03 08:13:57;;;;;;;33.20;13.45;;;5.60;99.90;;;;;;5071778;28;20020;-75
2021/03/03 08:16:25;;;;;;;33.85;13.35;;;5.80;99.90;;;;;;5067082;28;20016;-75
2021/03/03 08:18:54;;;;;;;29.05;11.95;;;5.90;99.90;;;;;;5072120;28;20035;-76
2021/03/03 08:21:23;;;;;;;;;;;6.00;99.90;;;;;;5072840;28;20074;-76
2021/03/03 08:23:58;;;;;;;;;;;6.10;99.90;;;;;;5074344;28;19954;-76
2021/03/03 08:26:24;;;;;;;30.05;11.95;;;6.10;99.90;;;;;;5072212;28;20408;-75
2021/03/03 08:28:52;;;;;;;21.70;9.82;;;6.10;99.90;;;;;;5073799;28;20033;-75
2021/03/03 08:31:19;;;;;;;25.33;11.07;;;6.10;99.90;;;;;;5087968;22;20025;-75
2021/03/03 08:33:54;;;;;;;24.17;10.90;;;6.10;99.90;;;;;;5074109;28;20029;-75
2021/03/03 08:36:24;;;;;;;28.55;11.30;;;6.10;99.90;;;;;;5041306;28;20048;-76
2021/03/03 08:38:56;;;;;;;22.27;10.75;;;6.00;99.90;;;;;;5095811;22;20071;-76
2021/03/03 08:41:30;;;;;;;28.38;10.45;;;6.00;99.90;;;;;;5081751;28;20527;-74
2021/03/03 08:44:10;;;;;;;20.98;9.75;;;5.90;99.90;;;;;;5092119;28;20093;-75
2021/03/03 08:46:39;;;;;;;16.50;8.50;;;5.80;99.90;;;;;;5081571;28;20477;-74
2021/03/03 08:49:04;;;;;;;17.75;8.05;;;5.70;99.90;;;;;;5072125;28;20086;-75
2021/03/03 08:51:44;;;;;;;12.32;7.32;;;5.70;99.90;;;;;;5101855;22;20036;-74
2021/03/03 08:54:14;;;;;;;18.60;7.45;;;5.60;99.90;;;;;;5119991;22;20024;-75
2021/03/03 08:56:40;;;;;;;13.23;6.70;;;5.60;99.90;;;;;;5089346;28;20090;-75
2021/03/03 08:59:06;;;;;;;12.45;6.63;;;5.60;99.90;;;;;;5076131;28;20028;-74
2021/03/03 09:01:52;;;;;;;15.18;6.90;;;5.60;99.90;;;;;;5077224;28;20098;-75
2021/03/03 09:04:24;;;;;;;11.82;5.57;;;5.60;99.90;;;;;;5100302;22;20047;-75
2021/03/03 09:07:14;;;;;;;10.55;5.85;;;5.60;99.90;;;;;;5095882;28;20023;-75
2021/03/03 09:09:50;;;;;;;11.32;5.97;;;5.70;99.90;;;;;;5096745;28;20047;-75
2021/03/03 09:12:19;;;;;;;13.13;6.10;;;5.80;99.90;;;;;;5095628;28;20020;-75
2021/03/03 09:14:47;;;;;;;13.98;6.57;;;5.90;99.90;;;;;;5095670;28;20020;-74
2021/03/03 09:17:16;;;;;;;14.50;7.28;;;5.90;99.90;;;;;;5092335;28;20381;-75
2021/03/03 09:19:42;;;;;;;13.73;7.10;;;5.90;99.90;;;;;;5095852;28;20050;-74
2021/03/03 09:22:21;;;;;;;10.35;5.53;;;5.90;99.90;;;;;;5097022;28;20501;-75
2021/03/03 09:24:48;;;;;;;11.95;5.90;;;5.90;99.90;;;;;;5100988;22;20414;-75
2021/03/03 09:27:14;;;;;;;12.57;6.05;;;5.90;99.90;;;;;;5076782;28;20024;-74
2021/03/03 09:29:40;;;;;;;12.50;5.90;;;5.80;99.90;;;;;;5057139;28;20074;-75
2021/03/03 09:32:23;;;;;;;14.65;6.28;;;5.90;99.90;;;;;;5074363;28;20032;-74
2021/03/03 09:35:02;;;;;;;13.13;6.40;;;5.90;99.90;;;;;;5064603;28;20032;-74
2021/03/03 09:37:41;;;;;;;18.70;8.15;;;5.90;99.90;;;;;;5056928;28;20029;-75
2021/03/03 09:40:08;;;;;;;;;;;6.00;99.90;;;;;;5057476;28;20104;-77
2021/03/03 09:42:45;;;;;;;18.20;7.88;;;6.00;99.90;;;;;;5070609;28;19915;-75
2021/03/03 09:45:22;;;;;;;14.52;7.28;;;6.00;99.90;;;;;;5074788;28;20027;-76
2021/03/03 09:47:48;;;;;;;16.60;8.32;;;6.00;99.90;;;;;;5122545;22;20063;-75
2021/03/03 09:50:22;;;;;;;16.10;8.32;;;6.00;99.90;;;;;;5116867;28;20059;-75
2021/03/03 09:52:50;;;;;;;19.20;9.48;;;6.00;99.90;;;;;;5115523;28;20027;-76
2021/03/03 09:55:25;;;;;;;19.00;9.23;;;6.00;99.90;;;;;;5100210;22;20489;-76
2021/03/03 09:57:52;;;;;;;18.58;8.75;;;6.50;99.90;;;;;;5076248;28;20055;-75
2021/03/03 10:00:20;;;;;;;21.42;9.38;;;6.00;99.90;;;;;;5072076;28;20029;-76
2021/03/03 10:02:51;;;;;;;17.83;8.82;;;6.10;99.90;;;;;;5056351;28;20033;-75
2021/03/03 10:05:26;;;;;;;19.13;9.48;;;6.10;99.90;;;;;;5038308;28;20071;-76
2021/03/03 10:07:57;;;;;;;22.52;10.00;;;6.10;99.90;;;;;;5055337;28;20123;-75
2021/03/03 10:10:26;;;;;;;23.17;9.35;;;6.20;99.90;;;;;;5085992;23;20052;-75
2021/03/03 10:12:51;;;;;;;21.20;9.63;;;6.40;99.90;;;;;;5038145;28;20021;-75
2021/03/03 10:15:22;;;;;;;20.83;10.50;;;6.50;99.90;;;;;;5056161;28;20165;-75
2021/03/03 10:17:53;;;;;;;22.27;10.55;;;6.40;99.90;;;;;;5056603;22;20021;-76
2021/03/03 10:20:29;;;;;;;23.30;10.27;;;6.70;99.90;;;;;;5094476;28;20047;-77
2021/03/03 10:22:55;;;;;;;23.00;11.43;;;7.30;99.90;;;;;;5094896;28;20431;-77
2021/03/03 10:25:34;;;;;;;20.95;11.50;;;7.00;99.90;;;;;;5094899;28;20039;-76
2021/03/03 10:28:05;;;;;;;23.15;10.90;;;7.10;99.90;;;;;;5095298;28;20055;-77
2021/03/03 10:30:32;;;;;;;23.20;11.75;;;7.20;99.90;;;;;;5094869;28;20036;-76
2021/03/03 10:32:58;;;;;;;25.85;12.27;;;7.30;99.90;;;;;;5086430;28;20397;-76
2021/03/03 10:35:26;;;;;;;30.48;13.82;;;7.40;99.90;;;;;;5090731;28;20035;-75
2021/03/03 10:37:52;;;;;;;27.13;12.15;;;7.50;99.90;;;;;;5080884;28;20404;-77
2021/03/03 10:40:19;;;;;;;26.40;13.88;;;7.40;99.90;;;;;;5091252;22;20044;-77
2021/03/03 10:42:46;;;;;;;30.05;13.43;;;7.50;99.90;;;;;;5037579;28;20048;-76
2021/03/03 10:45:19;;;;;;;27.60;13.77;;;7.70;99.90;;;;;;5037791;28;20017;-78
2021/03/03 10:47:45;;;;;;;26.73;13.15;;;7.70;99.90;;;;;;5065462;23;20036;-76
2021/03/03 10:50:12;;;;;;;31.33;13.75;;;7.80;99.90;;;;;;5077471;28;20013;-76
2021/03/03 10:52:38;;;;;;;31.95;14.80;;;7.90;99.90;;;;;;5077528;28;20039;-77
2021/03/03 10:55:20;;;;;;;30.02;14.00;;;8.00;99.90;;;;;;5095739;28;20020;-76
2021/03/03 10:58:06;;;;;;;30.95;14.27;;;8.00;99.90;;;;;;5123367;23;20062;-75
2021/03/03 11:00:52;;;;;;;29.08;14.00;;;8.10;99.90;;;;;;5115131;28;20085;-77
2021/03/03 11:03:17;;;;;;;31.98;14.73;;;8.20;99.90;;;;;;5114977;28;20019;-75
2021/03/03 11:05:43;;;;;;;32.15;15.32;;;8.20;99.90;;;;;;5114453;28;20012;-76
2021/03/03 11:08:09;;;;;;;35.53;14.35;;;8.20;99.90;;;;;;5116073;28;20023;-75
2021/03/03 11:10:34;;;;;;;33.55;15.00;;;8.20;99.90;;;;;;5124477;22;20528;-76
2021/03/03 11:13:00;;;;;;;35.58;15.52;;;10.70;99.90;;;;;;5075555;28;20424;-75
2021/03/03 11:15:26;;;;;;;32.25;16.10;;;9.90;99.90;;;;;;5057423;28;20069;-75
2021/03/03 11:17:51;;;;;;;34.83;15.35;;;7.50;99.90;;;;;;5063783;28;20092;-75
2021/03/03 11:20:17;;;;;;;35.17;15.98;;;8.30;99.90;;;;;;5091054;28;20081;-75
2021/03/03 11:22:43;;;;;;;36.83;18.10;;;8.60;99.90;;;;;;5076816;28;20024;-75
2021/03/03 11:25:09;;;;;;;33.47;16.33;;;8.60;99.90;;;;;;5109132;22;20055;-75
2021/03/03 11:27:35;;;;;;;35.35;16.23;;;8.80;99.90;;;;;;5095117;28;20386;-75
2021/03/03 11:30:00;;;;;;;34.97;17.10;;;9.00;99.90;;;;;;5076985;28;20077;-75
2021/03/03 11:32:26;;;;;;;35.65;16.95;;;9.10;99.90;;;;;;5076502;28;20114;-75
2021/03/03 11:34:53;;;;;;;35.65;17.08;;;9.20;99.90;;;;;;5147818;22;20048;-74
2021/03/03 11:37:18;;;;;;;35.53;16.50;;;12.10;99.90;;;;;;5106886;28;20488;-74
2021/03/03 11:39:44;;;;;;;34.53;16.90;;;8.70;99.90;;;;;;5127809;22;20044;-75
2021/03/03 11:42:10;;;;;;;36.20;17.08;;;9.60;99.90;;;;;;5084760;28;20103;-74
2021/03/03 11:44:35;;;;;;;36.22;17.10;;;9.60;99.90;;;;;;5076359;28;20052;-74
2021/03/03 11:47:01;;;;;;;36.05;16.75;;;9.40;99.90;;;;;;5092833;28;20432;-76
2021/03/03 11:49:27;;;;;;;39.35;18.80;;;9.20;99.90;;;;;;5085261;28;20020;-76
2021/03/03 11:51:52;;;;;;;36.25;18.52;;;9.10;99.90;;;;;;5096323;28;20058;-77
2021/03/03 11:54:18;;;;;;;35.05;17.55;;;9.10;99.90;;;;;;5114591;28;20019;-77
2021/03/03 11:56:45;;;;;;;35.92;16.33;;;9.20;99.90;;;;;;5111882;28;20023;-75
2021/03/03 11:59:11;;;;;;;34.53;16.15;;;9.50;99.90;;;;;;5114299;28;20024;-77
2021/03/03 12:01:37;;;;;;;35.00;17.30;;;9.70;99.90;;;;;;5097057;28;20120;-76
2021/03/03 12:04:02;;;;;;;37.53;16.60;;;10.00;99.90;;;;;;5100600;23;20052;-78
2021/03/03 12:06:28;;;;;;;34.28;16.45;;;10.20;99.90;;;;;;5093875;28;20111;-78
2021/03/03 12:08:53;;;;;;;35.58;16.92;;;11.30;99.90;;;;;;5092847;28;20095;-77
2021/03/03 12:11:19;;;;;;;37.15;17.88;;;10.70;99.90;;;;;;5092412;28;20549;-76
2021/03/03 12:13:44;;;;;;;37.72;17.70;;;10.80;99.90;;;;;;5094107;28;20095;-76
2021/03/03 12:16:10;;;;;;;38.50;17.38;;;10.90;99.90;;;;;;5088207;28;20020;-77
2021/03/03 12:18:35;;;;;;;38.20;17.73;;;11.10;99.90;;;;;;5094014;28;20017;-76
2021/03/03 12:21:01;;;;;;;33.30;16.08;;;11.20;99.90;;;;;;5093978;28;20024;-75
2021/03/03 12:23:27;;;;;;;39.08;18.17;;;11.30;99.90;;;;;;5079652;28;20115;-77
2021/03/03 12:25:52;;;;;;;32.30;15.52;;;11.30;99.90;;;;;;5073027;28;20023;-75
2021/03/03 12:28:19;;;;;;;37.80;15.63;;;11.40;99.90;;;;;;5088429;28;20029;-76
2021/03/03 12:30:45;;;;;;;39.53;17.58;;;11.40;98.90;;;;;;5072432;28;20108;-77
2021/03/03 12:33:10;;;;;;;34.22;16.63;;;11.50;98.60;;;;;;5077108;28;20100;-76
2021/03/03 12:35:36;;;;;;;39.90;17.88;;;11.60;98.30;;;;;;5077476;28;20019;-77
2021/03/03 12:38:02;;;;;;;35.55;17.08;;;11.60;97.80;;;;;;5086223;28;20024;-76
2021/03/03 12:40:27;;;;;;;33.70;15.20;;;11.70;98.20;;;;;;5093452;28;20492;-77
2021/03/03 12:42:53;;;;;;;34.65;14.93;;;11.80;97.10;;;;;;5090467;28;20042;-76
2021/03/03 12:45:18;;;;;;;37.38;17.00;;;11.80;96.60;;;;;;5078099;28;20028;-78
2021/03/03 12:47:44;;;;;;;37.53;17.38;;;12.00;95.80;;;;;;5081199;28;20499;-78
2021/03/03 12:50:10;;;;;;;35.63;16.25;;;12.00;95.60;;;;;;5097703;28;20493;-77
2021/03/03 12:52:36;;;;;;;36.75;18.25;;;12.10;95.10;;;;;;5098201;28;20047;-76